EDXW/GWT METAR and TAF weather

Enter ICAO airport designator
Station Type Date Time Source
EDXW METAR 2024/06/14 01:50 UTC NOAA

EDXW 140150Z AUTO 17007KT 9999 // OVC057/// 12/09 Q1010


Station Type Date Time Source
EDXW Decoded METAR 2024/06/14 01:50 UTC NOAA

Westerland / Sylt, Germany (EDXW) 54-55N 008-21E 20M
Jun 13, 2024 - 09:50 PM EDT / 2024.06.14 0150 UTC
Wind: from the S (170 degrees) at 8 MPH (7 KT):0
Visibility: greater than 7 mile(s):0
Sky conditions: overcast
Temperature: 53 F (12 C)
Dew Point: 48 F (9 C)
Relative Humidity: 81%
Pressure (altimeter): 29.83 in. Hg (1010 hPa)
ob: EDXW 140150Z AUTO 17007KT 9999 // OVC057/// 12/09 Q1010
cycle: 2

Station Type Date Time Source
EDXW TAF 2009/07/07 14:00 UTC NOAA